createdAt,value
2023-03-03T00:00:02.079Z,102797.16
2023-03-03T00:02:07.029Z,102804.81
2023-03-03T00:04:11.740Z,102810.78
2023-03-03T00:06:17.958Z,102815.03
2023-03-03T00:08:24.031Z,102803.81
2023-03-03T00:10:31.603Z,102799.50
2023-03-03T00:12:38.627Z,102803.81
2023-03-03T00:14:43.949Z,102813.25
2023-03-03T00:16:49.997Z,102815.03
2023-03-03T00:18:55.821Z,102810.78
2023-03-03T00:21:01.880Z,102808.91
2023-03-03T00:23:23.050Z,102810.63
2023-03-03T00:25:34.575Z,102809.78
2023-03-03T00:27:39.370Z,102809.50
2023-03-03T00:29:48.746Z,102819.84
2023-03-03T00:31:53.497Z,102813.75
2023-03-03T00:33:59.792Z,102812.63
2023-03-03T00:36:29.104Z,102811.25
2023-03-03T00:38:38.453Z,102821.50
2023-03-03T00:40:45.894Z,102815.53
2023-03-03T00:42:54.266Z,102811.09
2023-03-03T00:45:02.958Z,102813.00
2023-03-03T00:47:29.953Z,102812.03
2023-03-03T00:49:36.693Z,102807.69
2023-03-03T00:51:41.611Z,102806.56
2023-03-03T00:53:46.483Z,102810.72
2023-03-03T00:55:54.876Z,102817.53
2023-03-03T00:57:59.916Z,102816.56
2023-03-03T01:00:04.623Z,102812.25
2023-03-03T01:02:09.718Z,102809.19
2023-03-03T01:04:15.863Z,102818.16
2023-03-03T01:06:20.788Z,102806.81
2023-03-03T01:08:25.980Z,102809.75
2023-03-03T01:10:33.361Z,102809.59
2023-03-03T01:12:41.508Z,102817.59
2023-03-03T01:14:46.499Z,102815.84
2023-03-03T01:16:51.129Z,102812.22
2023-03-03T01:18:55.778Z,102815.91
2023-03-03T01:21:02.144Z,102813.59
2023-03-03T01:23:07.564Z,102820.47
2023-03-03T01:25:18.421Z,102808.47
2023-03-03T01:27:23.271Z,102814.41
2023-03-03T01:29:30.611Z,102811.94
2023-03-03T01:31:35.343Z,102812.09
2023-03-03T01:33:39.993Z,102812.09
2023-03-03T01:35:47.488Z,102815.59
2023-03-03T01:37:52.174Z,102813.81
2023-03-03T01:39:58.187Z,102815.53
2023-03-03T01:42:02.945Z,102815.69
2023-03-03T01:44:08.003Z,102821.59
2023-03-03T01:46:48.682Z,102815.50
2023-03-03T01:49:03.241Z,102823.22
2023-03-03T01:51:19.309Z,102829.09
2023-03-03T01:53:26.869Z,102819.56
2023-03-03T01:55:36.907Z,102817.00
2023-03-03T01:57:46.502Z,102811.06
2023-03-03T01:59:53.770Z,102816.84
2023-03-03T02:01:58.403Z,102815.97
2023-03-03T02:04:06.209Z,102821.22
2023-03-03T02:06:14.946Z,102816.03
2023-03-03T02:08:23.962Z,102810.09
2023-03-03T02:10:29.781Z,102819.56
2023-03-03T02:12:38.950Z,102807.25
2023-03-03T02:14:43.775Z,102809.31
2023-03-03T02:16:48.533Z,102813.59
2023-03-03T02:18:53.290Z,102804.25
2023-03-03T02:21:05.185Z,102812.78
2023-03-03T02:23:16.219Z,102812.72
2023-03-03T02:25:30.521Z,102804.91
2023-03-03T02:27:41.100Z,102809.09
2023-03-03T02:29:45.824Z,102806.50
2023-03-03T02:31:50.681Z,102807.34
2023-03-03T02:33:56.326Z,102807.44
2023-03-03T02:36:01.628Z,102804.81
2023-03-03T02:38:14.867Z,102798.88
2023-03-03T02:40:22.913Z,102810.03
2023-03-03T02:42:32.456Z,102798.88
2023-03-03T02:44:42.562Z,102798.91
2023-03-03T02:46:50.115Z,102800.63
2023-03-03T02:48:54.899Z,102798.97
2023-03-03T02:50:59.468Z,102795.53
2023-03-03T02:53:04.336Z,102797.19
2023-03-03T02:55:11.290Z,102798.75
2023-03-03T02:57:18.319Z,102804.13
2023-03-03T02:59:22.934Z,102792.88
2023-03-03T03:01:32.149Z,102800.44
2023-03-03T03:03:39.025Z,102804.59
2023-03-03T03:05:43.872Z,102799.50
2023-03-03T03:07:51.443Z,102803.66
2023-03-03T03:09:56.321Z,102808.84
2023-03-03T03:12:02.933Z,102802.72
2023-03-03T03:14:09.741Z,102807.19
2023-03-03T03:16:14.774Z,102814.97
2023-03-03T03:18:22.179Z,102809.22
2023-03-03T03:20:26.863Z,102801.56
2023-03-03T03:22:31.999Z,102808.81
2023-03-03T03:24:36.696Z,102810.00
2023-03-03T03:26:41.444Z,102816.22
2023-03-03T03:28:46.349Z,102818.13
2023-03-03T03:30:51.217Z,102812.94
2023-03-03T03:32:55.801Z,102819.13
2023-03-03T03:35:03.059Z,102816.66
2023-03-03T03:37:09.967Z,102821.91
2023-03-03T03:39:14.728Z,102818.63
2023-03-03T03:41:19.445Z,102821.31
2023-03-03T03:43:24.294Z,102827.34
2023-03-03T03:45:29.041Z,102821.34
2023-03-03T03:47:33.637Z,102812.81
2023-03-03T03:49:38.253Z,102824.06
2023-03-03T03:51:45.662Z,102824.13
2023-03-03T03:53:50.326Z,102819.09
2023-03-03T03:55:54.969Z,102820.91
2023-03-03T03:57:59.872Z,102819.25
2023-03-03T04:00:04.584Z,102818.47
2023-03-03T04:02:09.433Z,102821.19
2023-03-03T04:04:14.269Z,102827.16
2023-03-03T04:06:19.161Z,102828.19
2023-03-03T04:08:26.504Z,102822.91
2023-03-03T04:10:31.211Z,102829.00
2023-03-03T04:12:38.722Z,102824.66
2023-03-03T04:14:43.741Z,102831.56
2023-03-03T04:16:48.704Z,102826.41
2023-03-03T04:18:53.403Z,102831.56
2023-03-03T04:20:58.102Z,102822.94
2023-03-03T04:23:03.345Z,102831.63
2023-03-03T04:25:12.736Z,102826.59
2023-03-03T04:27:18.100Z,102830.94
2023-03-03T04:29:22.762Z,102829.25
2023-03-03T04:31:27.607Z,102826.81
2023-03-03T04:33:32.303Z,102831.94
2023-03-03T04:35:37.470Z,102835.47
2023-03-03T04:37:42.460Z,102829.44
2023-03-03T04:39:47.297Z,102827.72
2023-03-03T04:41:54.536Z,102829.34
2023-03-03T04:43:59.167Z,102829.44
2023-03-03T04:46:06.434Z,102835.53
2023-03-03T04:48:11.261Z,102836.38
2023-03-03T04:50:16.627Z,102836.50
2023-03-03T04:52:21.390Z,102830.44
2023-03-03T04:54:26.108Z,102824.31
2023-03-03T04:56:32.892Z,102843.41
2023-03-03T04:58:40.311Z,102839.84
2023-03-03T05:00:45.003Z,102841.56
2023-03-03T05:02:51.091Z,102843.47
2023-03-03T05:04:55.964Z,102840.97
2023-03-03T05:07:00.703Z,102841.78
2023-03-03T05:09:05.434Z,102843.47
2023-03-03T05:11:10.139Z,102848.66
2023-03-03T05:13:15.513Z,102847.66
2023-03-03T05:15:22.778Z,102846.75
2023-03-03T05:17:25.450Z,102856.34
2023-03-03T05:19:30.034Z,102843.41
2023-03-03T05:21:36.010Z,102850.25
2023-03-03T05:23:42.232Z,102846.13
2023-03-03T05:25:47.353Z,102848.66
2023-03-03T05:27:52.177Z,102849.44
2023-03-03T05:29:56.975Z,102846.91
2023-03-03T05:32:04.544Z,102849.44
2023-03-03T05:34:09.621Z,102845.84
2023-03-03T05:36:14.363Z,102844.25
2023-03-03T05:38:18.961Z,102839.19
2023-03-03T05:40:24.150Z,102843.56
2023-03-03T05:42:28.766Z,102839.44
2023-03-03T05:44:33.558Z,102842.59
2023-03-03T05:46:38.398Z,102840.97
2023-03-03T05:48:45.978Z,102840.16
2023-03-03T05:50:50.710Z,102843.66
2023-03-03T05:52:55.912Z,102835.78
2023-03-03T05:55:03.526Z,102841.78
2023-03-03T05:57:08.172Z,102845.28
2023-03-03T05:59:20.818Z,102841.25
2023-03-03T06:01:25.580Z,102836.00
2023-03-03T06:03:30.396Z,102846.34
2023-03-03T06:05:37.776Z,102843.91
2023-03-03T06:07:42.615Z,102845.41
2023-03-03T06:09:47.288Z,102849.66
2023-03-03T06:11:54.466Z,102853.28
2023-03-03T06:13:59.317Z,102851.53
2023-03-03T06:16:04.020Z,102847.16
2023-03-03T06:18:09.015Z,102858.50
2023-03-03T06:20:14.572Z,102857.63
2023-03-03T06:22:21.902Z,102860.22
2023-03-03T06:24:30.386Z,102868.09
2023-03-03T06:26:35.712Z,102861.19
2023-03-03T06:28:43.679Z,102868.91
2023-03-03T06:30:48.364Z,102866.44
2023-03-03T06:32:53.021Z,102865.50
2023-03-03T06:34:57.849Z,102867.22
2023-03-03T06:37:02.486Z,102866.53
2023-03-03T06:39:09.930Z,102866.72
2023-03-03T06:41:14.792Z,102869.25
2023-03-03T06:43:33.131Z,102869.19
2023-03-03T06:45:38.023Z,102879.41
2023-03-03T06:47:42.836Z,102881.22
2023-03-03T06:49:47.601Z,102876.81
2023-03-03T06:51:52.295Z,102878.69
2023-03-03T06:53:58.762Z,102882.22
2023-03-03T06:56:12.337Z,102883.06
2023-03-03T06:58:19.525Z,102894.44
2023-03-03T07:00:30.834Z,102891.00
2023-03-03T07:02:35.859Z,102885.91
2023-03-03T07:04:40.864Z,102886.75
2023-03-03T07:06:45.694Z,102897.03
2023-03-03T07:08:50.562Z,102896.19
2023-03-03T07:10:56.025Z,102901.25
2023-03-03T07:13:23.778Z,102904.91
2023-03-03T07:15:37.065Z,102903.97
2023-03-03T07:17:45.851Z,102912.63
2023-03-03T07:19:51.298Z,102912.69
2023-03-03T07:21:56.046Z,102917.03
2023-03-03T07:24:02.648Z,102915.13
2023-03-03T07:26:07.726Z,102912.59
2023-03-03T07:28:25.250Z,102917.16
2023-03-03T07:30:32.029Z,102914.34
2023-03-03T07:32:42.872Z,102917.81
2023-03-03T07:34:50.526Z,102917.09
2023-03-03T07:36:59.576Z,102926.75
2023-03-03T07:39:06.479Z,102920.75
2023-03-03T07:41:17.451Z,102927.66
2023-03-03T07:43:34.777Z,102932.09
2023-03-03T07:45:41.212Z,102934.88
2023-03-03T07:47:46.083Z,102932.28
2023-03-03T07:49:51.813Z,102931.47
2023-03-03T07:51:58.650Z,102933.88
2023-03-03T07:54:20.798Z,102931.34
2023-03-03T07:56:32.908Z,102939.34
2023-03-03T07:58:46.207Z,102942.81
2023-03-03T08:01:29.968Z,102948.03
2023-03-03T08:03:40.041Z,102952.53
2023-03-03T08:05:45.560Z,102943.16
2023-03-03T08:07:52.557Z,102945.97
2023-03-03T08:10:02.161Z,102948.50
2023-03-03T08:12:26.334Z,102952.22
2023-03-03T08:14:37.580Z,102953.19
2023-03-03T08:16:42.957Z,102953.16
2023-03-03T08:18:49.672Z,102956.75
2023-03-03T08:20:57.512Z,102959.47
2023-03-03T08:23:02.362Z,102968.88
2023-03-03T08:25:07.986Z,102973.16
2023-03-03T08:27:12.668Z,102978.59
2023-03-03T08:29:17.351Z,102965.63
2023-03-03T08:31:39.853Z,102976.22
2023-03-03T08:33:45.227Z,102973.75
2023-03-03T08:35:50.285Z,102977.34
2023-03-03T08:37:55.030Z,102976.66
2023-03-03T08:39:59.760Z,102976.75
2023-03-03T08:42:04.638Z,102978.53
2023-03-03T08:44:09.867Z,102982.94
2023-03-03T08:46:14.895Z,102982.25
2023-03-03T08:48:22.927Z,102977.25
2023-03-03T08:50:27.905Z,102985.06
2023-03-03T08:52:32.578Z,102979.78
2023-03-03T08:54:37.581Z,102987.69
2023-03-03T08:56:42.309Z,102986.19
2023-03-03T08:59:03.560Z,102993.34
2023-03-03T09:01:08.522Z,102986.78
2023-03-03T09:03:16.095Z,102988.50
2023-03-03T09:05:24.549Z,102993.38
2023-03-03T09:07:29.217Z,102989.81
2023-03-03T09:09:34.126Z,102988.81
2023-03-03T09:11:39.167Z,102987.97
2023-03-03T09:13:44.283Z,102984.53
2023-03-03T09:15:50.706Z,102979.38
2023-03-03T09:17:56.202Z,102984.69
2023-03-03T09:20:05.757Z,102982.88
2023-03-03T09:22:23.969Z,102986.53
2023-03-03T09:24:30.627Z,102991.69
2023-03-03T09:26:48.561Z,102988.97
2023-03-03T09:28:53.394Z,102984.09
2023-03-03T09:31:01.819Z,102990.13
2023-03-03T09:33:26.082Z,102984.91
2023-03-03T09:35:42.609Z,102987.56
2023-03-03T09:37:53.779Z,102992.00
2023-03-03T09:40:00.122Z,102987.72
2023-03-03T09:42:37.802Z,102993.03
2023-03-03T09:45:21.828Z,102992.97
2023-03-03T09:47:33.256Z,102984.31
2023-03-03T09:49:44.944Z,102990.53
2023-03-03T09:52:09.437Z,102989.94
2023-03-03T09:54:39.508Z,102998.63
2023-03-03T09:56:49.768Z,102987.06
2023-03-03T09:59:07.698Z,102996.56
2023-03-03T10:01:31.882Z,102989.78
2023-03-03T10:04:05.304Z,102986.72
2023-03-03T10:06:18.338Z,102998.28
2023-03-03T10:08:49.417Z,102993.56
2023-03-03T10:11:06.711Z,102996.31
2023-03-03T10:13:26.411Z,102994.03
2023-03-03T10:15:41.462Z,102994.81
2023-03-03T10:17:53.359Z,102996.13
2023-03-03T10:20:09.744Z,102993.16
2023-03-03T10:22:24.512Z,102997.63
2023-03-03T10:24:34.461Z,102980.22
2023-03-03T10:27:12.379Z,102984.47
2023-03-03T10:29:34.128Z,102987.84
2023-03-03T10:31:50.427Z,102985.75
2023-03-03T10:34:10.525Z,102985.72
2023-03-03T10:36:45.921Z,102985.81
2023-03-03T10:39:04.883Z,102987.91
2023-03-03T10:41:25.721Z,102981.38
2023-03-03T10:43:49.534Z,102991.31
2023-03-03T10:46:24.460Z,102983.72
2023-03-03T10:48:58.960Z,102982.44
2023-03-03T10:51:17.423Z,102979.22
2023-03-03T10:53:28.166Z,102984.56
2023-03-03T10:55:41.398Z,102986.91
2023-03-03T10:57:52.577Z,102979.00
2023-03-03T11:00:09.877Z,102987.63
2023-03-03T11:02:22.563Z,102984.88
2023-03-03T11:04:56.603Z,102984.81
2023-03-03T11:07:10.081Z,102983.97
2023-03-03T11:09:33.797Z,102984.66
2023-03-03T11:11:46.662Z,102971.69
2023-03-03T11:13:56.120Z,102975.31
2023-03-03T11:16:31.725Z,102972.09
2023-03-03T11:19:04.907Z,102979.78
2023-03-03T11:21:16.765Z,102971.97
2023-03-03T11:23:55.387Z,102970.56
2023-03-03T11:26:12.407Z,102972.94
2023-03-03T11:28:34.619Z,102973.22
2023-03-03T11:30:53.440Z,102973.41
2023-03-03T11:33:06.558Z,102970.78
2023-03-03T11:35:27.474Z,102970.69
2023-03-03T11:37:43.700Z,102963.00
2023-03-03T11:39:48.423Z,102963.13
2023-03-03T11:42:04.808Z,102964.91
2023-03-03T11:44:21.953Z,102966.53
2023-03-03T11:46:33.379Z,102959.56
2023-03-03T11:48:49.010Z,102963.94
2023-03-03T11:51:01.868Z,102959.50
2023-03-03T11:53:24.243Z,102962.97
2023-03-03T11:55:33.493Z,102950.75
2023-03-03T11:57:45.165Z,102954.88
2023-03-03T12:00:09.641Z,102957.56
2023-03-03T12:02:39.901Z,102955.00
2023-03-03T12:04:53.209Z,102953.19
2023-03-03T12:07:18.946Z,102956.66
2023-03-03T12:09:36.776Z,102947.94
2023-03-03T12:11:55.536Z,102951.41
2023-03-03T12:14:06.097Z,102948.75
2023-03-03T12:16:16.676Z,102959.25
2023-03-03T12:18:40.457Z,102952.31
2023-03-03T12:20:59.258Z,102953.19
2023-03-03T12:23:21.130Z,102947.09
2023-03-03T12:25:32.368Z,102947.13
2023-03-03T12:27:44.571Z,102937.38
2023-03-03T12:30:02.449Z,102940.88
2023-03-03T12:32:21.722Z,102935.72
2023-03-03T12:34:33.169Z,102940.91
2023-03-03T12:36:53.599Z,102938.28
2023-03-03T12:39:03.213Z,102935.53
2023-03-03T12:41:16.050Z,102930.28
2023-03-03T12:43:33.105Z,102937.28
2023-03-03T12:45:46.905Z,102927.69
2023-03-03T12:47:55.010Z,102937.47
2023-03-03T12:50:13.994Z,102934.22
2023-03-03T12:52:34.135Z,102927.38
2023-03-03T12:54:53.759Z,102924.81
2023-03-03T12:57:01.312Z,102915.19
2023-03-03T12:59:11.804Z,102924.78
2023-03-03T13:01:32.009Z,102914.28
2023-03-03T13:03:55.340Z,102923.91
2023-03-03T13:06:08.824Z,102917.78
2023-03-03T13:08:31.436Z,102915.13
2023-03-03T13:10:44.918Z,102923.81
2023-03-03T13:12:58.826Z,102914.25
2023-03-03T13:15:16.082Z,102914.25
2023-03-03T13:17:25.810Z,102920.38
2023-03-03T13:19:37.376Z,102916.88
2023-03-03T13:21:48.140Z,102922.88
2023-03-03T13:24:01.224Z,102912.38
2023-03-03T13:26:13.003Z,102910.69
2023-03-03T13:28:29.004Z,102909.75
2023-03-03T13:30:38.206Z,102912.25
2023-03-03T13:32:50.275Z,102907.84
2023-03-03T13:34:58.880Z,102905.28
2023-03-03T13:37:08.757Z,102910.66
2023-03-03T13:39:22.510Z,102908.16
2023-03-03T13:41:32.412Z,102907.13
2023-03-03T13:43:46.560Z,102906.25
2023-03-03T13:46:03.089Z,102913.19
2023-03-03T13:48:29.703Z,102910.44
2023-03-03T13:50:40.823Z,102900.78
2023-03-03T13:52:55.213Z,102904.31
2023-03-03T13:55:24.032Z,102905.25
2023-03-03T13:57:46.937Z,102907.00
2023-03-03T14:00:00.606Z,102899.16
2023-03-03T14:02:26.269Z,102910.56
2023-03-03T14:04:43.626Z,102908.91
2023-03-03T14:06:54.795Z,102905.41
2023-03-03T14:09:16.983Z,102896.59
2023-03-03T14:11:28.932Z,102903.59
2023-03-03T14:13:38.373Z,102901.81
2023-03-03T14:15:55.652Z,102901.88
2023-03-03T14:18:21.352Z,102892.97
2023-03-03T14:20:30.579Z,102900.63
2023-03-03T14:22:48.034Z,102902.44
2023-03-03T14:25:08.187Z,102908.47
2023-03-03T14:27:29.457Z,102904.94
2023-03-03T14:29:36.189Z,102901.53
2023-03-03T14:31:44.746Z,102897.16
2023-03-03T14:34:00.789Z,102896.16
2023-03-03T14:36:18.226Z,102902.19
2023-03-03T14:38:26.681Z,102893.53
2023-03-03T14:40:35.637Z,102898.81
2023-03-03T14:42:51.162Z,102901.47
2023-03-03T14:44:59.404Z,102899.72
2023-03-03T14:47:10.025Z,102891.91
2023-03-03T14:49:19.525Z,102899.66
2023-03-03T14:51:29.185Z,102893.41
2023-03-03T14:53:37.510Z,102889.88
2023-03-03T14:55:46.672Z,102888.94
2023-03-03T14:57:54.181Z,102888.13
2023-03-03T15:00:07.308Z,102889.94
2023-03-03T15:02:30.481Z,102888.22
2023-03-03T15:04:35.403Z,102888.09
2023-03-03T15:06:45.117Z,102884.63
2023-03-03T15:08:49.961Z,102889.81
2023-03-03T15:10:54.665Z,102885.44
2023-03-03T15:13:11.101Z,102889.72
2023-03-03T15:15:22.628Z,102891.41
2023-03-03T15:17:31.052Z,102891.41
2023-03-03T15:19:58.260Z,102884.44
2023-03-03T15:22:12.176Z,102883.50
2023-03-03T15:24:26.992Z,102885.25
2023-03-03T15:26:45.673Z,102877.41
2023-03-03T15:29:02.591Z,102884.44
2023-03-03T15:31:21.360Z,102880.94
2023-03-03T15:33:35.511Z,102883.59
2023-03-03T15:35:51.818Z,102870.38
2023-03-03T15:38:02.680Z,102867.75
2023-03-03T15:40:20.109Z,102876.56
2023-03-03T15:42:35.541Z,102866.19
2023-03-03T15:44:54.748Z,102867.91
2023-03-03T15:47:21.358Z,102872.22
2023-03-03T15:49:47.167Z,102862.66
2023-03-03T15:52:21.531Z,102861.00
2023-03-03T15:54:37.333Z,102858.41
2023-03-03T15:56:49.500Z,102861.78
2023-03-03T15:59:08.971Z,102850.50
2023-03-03T16:01:26.005Z,102857.41
2023-03-03T16:03:35.446Z,102862.66
2023-03-03T16:05:47.068Z,102858.25
2023-03-03T16:08:05.866Z,102865.16
2023-03-03T16:10:22.532Z,102864.25
2023-03-03T16:12:35.548Z,102860.84
2023-03-03T16:15:14.604Z,102871.28
2023-03-03T16:17:29.471Z,102869.25
2023-03-03T16:19:45.439Z,102868.34
2023-03-03T16:22:10.830Z,102864.88
2023-03-03T16:24:25.760Z,102871.75
2023-03-03T16:26:43.424Z,102873.31
2023-03-03T16:29:01.397Z,102874.19
2023-03-03T16:31:13.047Z,102871.66
2023-03-03T16:33:25.745Z,102869.03
2023-03-03T16:35:38.674Z,102871.66
2023-03-03T16:37:57.753Z,102876.78
2023-03-03T16:40:11.921Z,102880.13
2023-03-03T16:42:27.197Z,102882.72
2023-03-03T16:44:45.108Z,102878.28
2023-03-03T16:46:52.416Z,102874.72
2023-03-03T16:49:06.457Z,102872.94
2023-03-03T16:51:26.536Z,102881.63
2023-03-03T16:53:48.589Z,102879.03
2023-03-03T16:56:04.683Z,102878.97
2023-03-03T16:58:25.149Z,102877.19
2023-03-03T17:00:32.693Z,102881.47
2023-03-03T17:02:59.468Z,102885.72
2023-03-03T17:05:15.187Z,102890.97
2023-03-03T17:07:37.368Z,102893.47
2023-03-03T17:10:03.116Z,102893.47
2023-03-03T17:12:21.916Z,102896.03
2023-03-03T17:14:53.158Z,102895.13
2023-03-03T17:17:01.556Z,102894.38
2023-03-03T17:19:21.740Z,102891.72
2023-03-03T17:21:42.416Z,102896.06
2023-03-03T17:24:04.320Z,102906.50
2023-03-03T17:26:31.199Z,102899.72
2023-03-03T17:28:47.943Z,102903.13
2023-03-03T17:31:01.115Z,102907.47
2023-03-03T17:33:31.915Z,102897.94
2023-03-03T17:35:57.681Z,102902.34
2023-03-03T17:38:13.446Z,102903.22
2023-03-03T17:40:34.047Z,102901.44
2023-03-03T17:42:50.485Z,102918.03
2023-03-03T17:45:05.387Z,102921.53
2023-03-03T17:47:16.409Z,102911.94
2023-03-03T17:49:50.644Z,102919.72
2023-03-03T17:52:09.271Z,102917.91
2023-03-03T17:54:46.511Z,102925.72
2023-03-03T17:57:01.303Z,102925.69
2023-03-03T17:59:33.682Z,102923.94
2023-03-03T18:01:52.334Z,102920.44
2023-03-03T18:04:27.731Z,102925.63
2023-03-03T18:06:56.679Z,102934.34
2023-03-03T18:09:31.146Z,102932.69
2023-03-03T18:12:02.960Z,102933.50
2023-03-03T18:14:24.337Z,102930.91
2023-03-03T18:16:46.387Z,102936.19
2023-03-03T18:19:11.161Z,102937.84
2023-03-03T18:21:19.485Z,102937.75
2023-03-03T18:23:34.130Z,102939.41
2023-03-03T18:25:58.970Z,102936.78
2023-03-03T18:28:24.277Z,102938.50
2023-03-03T18:30:33.567Z,102941.97
2023-03-03T18:32:45.484Z,102945.44
2023-03-03T18:34:52.685Z,102940.19
2023-03-03T18:36:59.630Z,102942.00
2023-03-03T18:39:07.361Z,102943.72
2023-03-03T18:41:14.440Z,102947.22
2023-03-03T18:43:49.372Z,102948.06
2023-03-03T18:45:58.704Z,102945.44
2023-03-03T18:48:11.325Z,102947.97
2023-03-03T18:50:34.386Z,102951.53
2023-03-03T18:52:40.313Z,102953.25
2023-03-03T18:54:45.556Z,102955.94
2023-03-03T18:57:06.977Z,102956.00
2023-03-03T18:59:13.699Z,102951.72
2023-03-03T19:01:44.380Z,102955.25
2023-03-03T19:04:16.375Z,102955.25
2023-03-03T19:06:34.502Z,102958.72
2023-03-03T19:08:57.948Z,102956.00
2023-03-03T19:11:02.665Z,102964.63
2023-03-03T19:13:32.025Z,102957.59
2023-03-03T19:15:57.981Z,102966.41
2023-03-03T19:18:07.760Z,102961.19
2023-03-03T19:20:16.679Z,102955.09
2023-03-03T19:22:27.625Z,102961.13
2023-03-03T19:24:36.963Z,102968.06
2023-03-03T19:27:06.026Z,102961.09
2023-03-03T19:29:41.731Z,102959.34
2023-03-03T19:31:54.909Z,102959.31
2023-03-03T19:34:08.816Z,102960.22
2023-03-03T19:36:52.001Z,102960.22
2023-03-03T19:39:09.018Z,102960.16
2023-03-03T19:41:41.064Z,102956.75
2023-03-03T19:43:51.794Z,102956.66
2023-03-03T19:46:11.153Z,102955.84
2023-03-03T19:48:24.713Z,102961.03
2023-03-03T19:50:46.771Z,102954.09
2023-03-03T19:52:58.911Z,102956.66
2023-03-03T19:55:23.068Z,102950.66
2023-03-03T19:57:42.960Z,102963.69
2023-03-03T19:59:57.717Z,102965.44
2023-03-03T20:02:28.843Z,102963.66
2023-03-03T20:05:01.194Z,102966.28
2023-03-03T20:07:24.034Z,102965.38
2023-03-03T20:09:40.213Z,102962.91
2023-03-03T20:11:59.939Z,102962.94
2023-03-03T20:14:12.365Z,102969.06
2023-03-03T20:16:28.877Z,102970.88
2023-03-03T20:18:50.616Z,102968.25
2023-03-03T20:21:04.303Z,102971.69
2023-03-03T20:23:19.676Z,102979.44
2023-03-03T20:25:33.818Z,102970.75
2023-03-03T20:27:50.292Z,102975.06
2023-03-03T20:30:08.890Z,102979.38
2023-03-03T20:32:21.054Z,102979.47
2023-03-03T20:34:37.699Z,102980.31
2023-03-03T20:36:51.924Z,102981.13
2023-03-03T20:39:07.664Z,102987.16
2023-03-03T20:41:21.626Z,102979.31
2023-03-03T20:43:39.052Z,102985.41
2023-03-03T20:45:59.189Z,102989.75
2023-03-03T20:48:15.672Z,102988.06
2023-03-03T20:50:32.960Z,102990.66
2023-03-03T20:52:45.163Z,102992.50
2023-03-03T20:55:10.196Z,102996.78
2023-03-03T20:57:22.443Z,102993.31
2023-03-03T20:59:34.735Z,102998.50
2023-03-03T21:01:46.512Z,102996.78
2023-03-03T21:03:51.339Z,102991.69
2023-03-03T21:06:00.422Z,102990.78
2023-03-03T21:08:08.212Z,102990.75
2023-03-03T21:10:24.129Z,102984.63
2023-03-03T21:12:31.840Z,102985.50
2023-03-03T21:14:40.018Z,102981.13
2023-03-03T21:16:46.013Z,102980.28
2023-03-03T21:19:04.154Z,102979.47
2023-03-03T21:21:09.683Z,102977.66
2023-03-03T21:23:14.653Z,102984.66
2023-03-03T21:25:53.573Z,102984.75
2023-03-03T21:28:16.436Z,102980.44
2023-03-03T21:30:21.980Z,102980.41
2023-03-03T21:32:39.379Z,102985.66
2023-03-03T21:34:47.164Z,102975.28
2023-03-03T21:36:52.701Z,102981.31
2023-03-03T21:38:58.441Z,102983.09
2023-03-03T21:41:06.490Z,102975.28
2023-03-03T21:43:11.256Z,102976.19
2023-03-03T21:45:20.650Z,102978.78
2023-03-03T21:47:26.779Z,102980.44
2023-03-03T21:49:31.791Z,102976.09
2023-03-03T21:51:36.650Z,102985.66
2023-03-03T21:53:41.441Z,102984.78
2023-03-03T21:55:49.740Z,102980.41
2023-03-03T21:57:56.999Z,102984.78
2023-03-03T22:00:01.786Z,102978.75
2023-03-03T22:02:06.707Z,102980.44
2023-03-03T22:04:11.832Z,102976.97
2023-03-03T22:06:16.559Z,102976.94
2023-03-03T22:08:22.902Z,102981.28
2023-03-03T22:10:27.674Z,102973.47
2023-03-03T22:12:32.357Z,102977.00
2023-03-03T22:14:41.888Z,102983.06
2023-03-03T22:16:47.028Z,102984.81
2023-03-03T22:18:51.929Z,102978.66
2023-03-03T22:20:56.679Z,102978.72
2023-03-03T22:23:01.331Z,102973.47
2023-03-03T22:25:06.289Z,102986.53
2023-03-03T22:27:12.370Z,102987.44
2023-03-03T22:29:22.839Z,102977.97
2023-03-03T22:31:30.576Z,102987.47
2023-03-03T22:33:35.407Z,102978.75
2023-03-03T22:35:40.435Z,102980.44
2023-03-03T22:37:45.076Z,102978.78
2023-03-03T22:39:49.813Z,102980.53
2023-03-03T22:41:54.451Z,102983.13
2023-03-03T22:43:59.211Z,102977.88
2023-03-03T22:46:06.660Z,102977.91
2023-03-03T22:48:16.884Z,102980.44
2023-03-03T22:50:22.270Z,102974.34
2023-03-03T22:52:27.119Z,102976.88
2023-03-03T22:54:31.895Z,102981.28
2023-03-03T22:56:36.709Z,102980.44
2023-03-03T22:58:41.886Z,102979.66
2023-03-03T23:00:46.690Z,102977.84
2023-03-03T23:02:51.429Z,102980.44
2023-03-03T23:05:01.855Z,102982.16
2023-03-03T23:07:07.264Z,102979.56
2023-03-03T23:09:11.989Z,102986.50
2023-03-03T23:11:16.806Z,102986.59
2023-03-03T23:13:21.661Z,102985.69
2023-03-03T23:15:26.604Z,102974.41
2023-03-03T23:17:31.313Z,102984.81
2023-03-03T23:19:36.061Z,102974.34
2023-03-03T23:21:43.772Z,102975.22
2023-03-03T23:23:48.602Z,102972.59
2023-03-03T23:25:53.436Z,102978.63
2023-03-03T23:27:58.998Z,102982.19
2023-03-03T23:30:03.940Z,102984.66
2023-03-03T23:32:09.280Z,102976.06
2023-03-03T23:34:14.120Z,102979.50
2023-03-03T23:36:19.141Z,102980.41
2023-03-03T23:38:26.411Z,102978.75
2023-03-03T23:40:31.079Z,102979.56
2023-03-03T23:42:35.828Z,102983.00
2023-03-03T23:44:41.251Z,102978.72
2023-03-03T23:46:46.105Z,102976.94
2023-03-03T23:48:50.867Z,102978.63
2023-03-03T23:50:55.606Z,102975.09
2023-03-03T23:53:00.647Z,102980.28
2023-03-03T23:55:09.472Z,102982.94
2023-03-03T23:57:14.791Z,102982.91
2023-03-03T23:59:19.557Z,102976.84
